sensor_id;sensor_type;location;lat;lon;timestamp;P1;durP1;ratioP1;P2;durP2;ratioP2
62790;SDS011;48830;53.426;10.300;2023-12-29T00:02:05;15.07;;;8.30;;
62790;SDS011;48830;53.426;10.300;2023-12-29T00:04:30;12.40;;;8.00;;
62790;SDS011;48830;53.426;10.300;2023-12-29T00:06:56;12.57;;;7.50;;
62790;SDS011;48830;53.426;10.300;2023-12-29T00:09:21;12.50;;;7.70;;
62790;SDS011;48830;53.426;10.300;2023-12-29T00:11:47;11.95;;;7.35;;
62790;SDS011;48830;53.426;10.300;2023-12-29T00:14:13;12.93;;;7.65;;
62790;SDS011;48830;53.426;10.300;2023-12-29T00:16:39;12.80;;;7.45;;
62790;SDS011;48830;53.426;10.300;2023-12-29T00:19:04;13.60;;;7.88;;
62790;SDS011;48830;53.426;10.300;2023-12-29T00:21:29;12.68;;;8.18;;
62790;SDS011;48830;53.426;10.300;2023-12-29T00:23:55;13.35;;;7.22;;
62790;SDS011;48830;53.426;10.300;2023-12-29T00:26:21;12.02;;;7.38;;
62790;SDS011;48830;53.426;10.300;2023-12-29T00:28:53;12.30;;;7.38;;
62790;SDS011;48830;53.426;10.300;2023-12-29T00:31:19;12.50;;;7.22;;
62790;SDS011;48830;53.426;10.300;2023-12-29T00:33:44;11.25;;;7.10;;
62790;SDS011;48830;53.426;10.300;2023-12-29T00:36:16;10.45;;;6.68;;
62790;SDS011;48830;53.426;10.300;2023-12-29T00:38:42;10.85;;;6.55;;
62790;SDS011;48830;53.426;10.300;2023-12-29T00:41:07;11.40;;;6.63;;
62790;SDS011;48830;53.426;10.300;2023-12-29T00:43:33;10.90;;;6.70;;
62790;SDS011;48830;53.426;10.300;2023-12-29T00:46:00;12.25;;;7.18;;
62790;SDS011;48830;53.426;10.300;2023-12-29T00:48:26;11.05;;;6.30;;
62790;SDS011;48830;53.426;10.300;2023-12-29T00:50:52;11.30;;;6.47;;
62790;SDS011;48830;53.426;10.300;2023-12-29T00:53:17;9.70;;;6.53;;
62790;SDS011;48830;53.426;10.300;2023-12-29T00:55:42;10.27;;;6.40;;
62790;SDS011;48830;53.426;10.300;2023-12-29T00:58:08;9.80;;;6.28;;
62790;SDS011;48830;53.426;10.300;2023-12-29T01:00:33;11.02;;;6.40;;
62790;SDS011;48830;53.426;10.300;2023-12-29T01:02:59;10.68;;;6.13;;
62790;SDS011;48830;53.426;10.300;2023-12-29T01:05:25;11.35;;;6.65;;
62790;SDS011;48830;53.426;10.300;2023-12-29T01:07:50;11.32;;;6.07;;
62790;SDS011;48830;53.426;10.300;2023-12-29T01:10:16;10.63;;;5.88;;
62790;SDS011;48830;53.426;10.300;2023-12-29T01:12:42;10.55;;;6.50;;
62790;SDS011;48830;53.426;10.300;2023-12-29T01:15:08;9.85;;;5.78;;
62790;SDS011;48830;53.426;10.300;2023-12-29T01:17:33;11.98;;;6.32;;
62790;SDS011;48830;53.426;10.300;2023-12-29T01:19:59;11.20;;;5.63;;
62790;SDS011;48830;53.426;10.300;2023-12-29T01:22:24;9.98;;;5.93;;
62790;SDS011;48830;53.426;10.300;2023-12-29T01:24:50;10.23;;;5.97;;
62790;SDS011;48830;53.426;10.300;2023-12-29T01:27:15;8.98;;;5.55;;
62790;SDS011;48830;53.426;10.300;2023-12-29T01:29:41;9.07;;;5.45;;
62790;SDS011;48830;53.426;10.300;2023-12-29T01:32:06;9.85;;;5.80;;
62790;SDS011;48830;53.426;10.300;2023-12-29T01:34:33;8.23;;;5.22;;
62790;SDS011;48830;53.426;10.300;2023-12-29T01:36:59;8.70;;;5.40;;
62790;SDS011;48830;53.426;10.300;2023-12-29T01:39:27;10.30;;;5.50;;
62790;SDS011;48830;53.426;10.300;2023-12-29T01:41:52;9.52;;;5.47;;
62790;SDS011;48830;53.426;10.300;2023-12-29T01:44:20;8.93;;;5.82;;
62790;SDS011;48830;53.426;10.300;2023-12-29T01:46:48;11.23;;;5.20;;
62790;SDS011;48830;53.426;10.300;2023-12-29T01:49:15;8.52;;;4.85;;
62790;SDS011;48830;53.426;10.300;2023-12-29T01:51:45;8.75;;;5.00;;
62790;SDS011;48830;53.426;10.300;2023-12-29T01:54:15;8.50;;;4.95;;
62790;SDS011;48830;53.426;10.300;2023-12-29T01:56:41;9.43;;;5.65;;
62790;SDS011;48830;53.426;10.300;2023-12-29T01:59:07;8.43;;;4.80;;
62790;SDS011;48830;53.426;10.300;2023-12-29T02:01:33;8.35;;;4.78;;
62790;SDS011;48830;53.426;10.300;2023-12-29T02:04:00;8.50;;;4.80;;
62790;SDS011;48830;53.426;10.300;2023-12-29T02:06:26;9.73;;;5.40;;
62790;SDS011;48830;53.426;10.300;2023-12-29T02:08:52;8.27;;;4.60;;
62790;SDS011;48830;53.426;10.300;2023-12-29T02:11:18;8.50;;;5.00;;
62790;SDS011;48830;53.426;10.300;2023-12-29T02:13:43;9.05;;;4.93;;
62790;SDS011;48830;53.426;10.300;2023-12-29T02:16:11;9.88;;;5.03;;
62790;SDS011;48830;53.426;10.300;2023-12-29T02:18:41;8.85;;;4.68;;
62790;SDS011;48830;53.426;10.300;2023-12-29T02:21:10;7.53;;;4.65;;
62790;SDS011;48830;53.426;10.300;2023-12-29T02:23:36;8.07;;;4.72;;
62790;SDS011;48830;53.426;10.300;2023-12-29T02:26:02;7.60;;;4.60;;
62790;SDS011;48830;53.426;10.300;2023-12-29T02:28:34;8.57;;;4.70;;
62790;SDS011;48830;53.426;10.300;2023-12-29T02:31:17;6.13;;;3.85;;
62790;SDS011;48830;53.426;10.300;2023-12-29T02:33:45;7.45;;;4.10;;
62790;SDS011;48830;53.426;10.300;2023-12-29T02:36:14;7.70;;;4.30;;
62790;SDS011;48830;53.426;10.300;2023-12-29T02:38:42;8.07;;;4.20;;
62790;SDS011;48830;53.426;10.300;2023-12-29T02:41:08;7.03;;;4.32;;
62790;SDS011;48830;53.426;10.300;2023-12-29T02:43:33;7.65;;;4.15;;
62790;SDS011;48830;53.426;10.300;2023-12-29T02:45:59;7.05;;;4.03;;
62790;SDS011;48830;53.426;10.300;2023-12-29T02:48:24;8.13;;;3.97;;
62790;SDS011;48830;53.426;10.300;2023-12-29T02:50:50;7.63;;;3.90;;
62790;SDS011;48830;53.426;10.300;2023-12-29T02:53:15;6.50;;;3.30;;
62790;SDS011;48830;53.426;10.300;2023-12-29T02:55:41;9.52;;;3.90;;
62790;SDS011;48830;53.426;10.300;2023-12-29T02:58:07;6.68;;;3.38;;
62790;SDS011;48830;53.426;10.300;2023-12-29T03:00:32;6.93;;;3.72;;
62790;SDS011;48830;53.426;10.300;2023-12-29T03:02:58;7.28;;;3.53;;
62790;SDS011;48830;53.426;10.300;2023-12-29T03:05:24;6.53;;;3.35;;
62790;SDS011;48830;53.426;10.300;2023-12-29T03:07:49;5.93;;;3.38;;
62790;SDS011;48830;53.426;10.300;2023-12-29T03:10:15;8.10;;;4.05;;
62790;SDS011;48830;53.426;10.300;2023-12-29T03:12:40;6.07;;;3.30;;
62790;SDS011;48830;53.426;10.300;2023-12-29T03:15:05;5.75;;;3.20;;
62790;SDS011;48830;53.426;10.300;2023-12-29T03:17:31;5.90;;;3.20;;
62790;SDS011;48830;53.426;10.300;2023-12-29T03:19:58;6.18;;;3.25;;
62790;SDS011;48830;53.426;10.300;2023-12-29T03:22:23;5.97;;;3.08;;
62790;SDS011;48830;53.426;10.300;2023-12-29T03:24:50;6.13;;;3.30;;
62790;SDS011;48830;53.426;10.300;2023-12-29T03:27:16;5.50;;;3.08;;
62790;SDS011;48830;53.426;10.300;2023-12-29T03:29:41;6.80;;;3.35;;
62790;SDS011;48830;53.426;10.300;2023-12-29T03:32:06;5.70;;;3.00;;
62790;SDS011;48830;53.426;10.300;2023-12-29T03:34:32;6.15;;;4.20;;
62790;SDS011;48830;53.426;10.300;2023-12-29T03:36:58;4.97;;;2.78;;
62790;SDS011;48830;53.426;10.300;2023-12-29T03:39:23;8.18;;;3.40;;
62790;SDS011;48830;53.426;10.300;2023-12-29T03:41:49;6.00;;;3.42;;
62790;SDS011;48830;53.426;10.300;2023-12-29T03:44:14;5.60;;;3.10;;
62790;SDS011;48830;53.426;10.300;2023-12-29T03:46:40;5.88;;;3.35;;
62790;SDS011;48830;53.426;10.300;2023-12-29T03:49:06;7.25;;;3.15;;
62790;SDS011;48830;53.426;10.300;2023-12-29T03:51:31;5.95;;;3.33;;
62790;SDS011;48830;53.426;10.300;2023-12-29T03:53:57;6.47;;;3.35;;
62790;SDS011;48830;53.426;10.300;2023-12-29T03:56:24;6.63;;;3.28;;
62790;SDS011;48830;53.426;10.300;2023-12-29T03:58:49;5.60;;;2.78;;
62790;SDS011;48830;53.426;10.300;2023-12-29T04:01:15;5.68;;;3.05;;
62790;SDS011;48830;53.426;10.300;2023-12-29T04:03:42;5.15;;;2.80;;
62790;SDS011;48830;53.426;10.300;2023-12-29T04:06:08;5.35;;;2.55;;
62790;SDS011;48830;53.426;10.300;2023-12-29T04:08:34;5.50;;;3.28;;
62790;SDS011;48830;53.426;10.300;2023-12-29T04:11:00;5.47;;;2.88;;
62790;SDS011;48830;53.426;10.300;2023-12-29T04:13:26;5.70;;;2.88;;
62790;SDS011;48830;53.426;10.300;2023-12-29T04:15:51;6.28;;;3.10;;
62790;SDS011;48830;53.426;10.300;2023-12-29T04:18:17;6.13;;;2.75;;
62790;SDS011;48830;53.426;10.300;2023-12-29T04:20:44;6.50;;;3.45;;
62790;SDS011;48830;53.426;10.300;2023-12-29T04:23:10;6.28;;;3.03;;
62790;SDS011;48830;53.426;10.300;2023-12-29T04:25:37;5.28;;;2.80;;
62790;SDS011;48830;53.426;10.300;2023-12-29T04:28:04;5.30;;;2.67;;
62790;SDS011;48830;53.426;10.300;2023-12-29T04:30:30;4.80;;;2.40;;
62790;SDS011;48830;53.426;10.300;2023-12-29T04:32:55;5.90;;;2.67;;
62790;SDS011;48830;53.426;10.300;2023-12-29T04:35:21;4.72;;;2.50;;
62790;SDS011;48830;53.426;10.300;2023-12-29T04:37:46;5.43;;;2.75;;
62790;SDS011;48830;53.426;10.300;2023-12-29T04:40:12;5.50;;;2.50;;
62790;SDS011;48830;53.426;10.300;2023-12-29T04:42:38;4.53;;;2.45;;
62790;SDS011;48830;53.426;10.300;2023-12-29T04:45:04;4.72;;;2.33;;
62790;SDS011;48830;53.426;10.300;2023-12-29T04:47:30;5.10;;;2.60;;
62790;SDS011;48830;53.426;10.300;2023-12-29T04:49:56;5.63;;;2.85;;
62790;SDS011;48830;53.426;10.300;2023-12-29T04:52:22;4.85;;;2.72;;
62790;SDS011;48830;53.426;10.300;2023-12-29T04:54:47;5.60;;;2.83;;
62790;SDS011;48830;53.426;10.300;2023-12-29T04:57:12;4.93;;;2.78;;
62790;SDS011;48830;53.426;10.300;2023-12-29T04:59:38;4.63;;;2.40;;
62790;SDS011;48830;53.426;10.300;2023-12-29T05:02:04;4.57;;;2.40;;
62790;SDS011;48830;53.426;10.300;2023-12-29T05:04:29;5.13;;;2.63;;
62790;SDS011;48830;53.426;10.300;2023-12-29T05:06:55;4.65;;;2.50;;
62790;SDS011;48830;53.426;10.300;2023-12-29T05:09:20;4.05;;;2.40;;
62790;SDS011;48830;53.426;10.300;2023-12-29T05:11:46;5.43;;;2.30;;
62790;SDS011;48830;53.426;10.300;2023-12-29T05:14:11;5.50;;;2.60;;
62790;SDS011;48830;53.426;10.300;2023-12-29T05:16:37;4.57;;;2.35;;
62790;SDS011;48830;53.426;10.300;2023-12-29T05:19:02;4.63;;;2.55;;
62790;SDS011;48830;53.426;10.300;2023-12-29T05:21:28;5.70;;;2.40;;
62790;SDS011;48830;53.426;10.300;2023-12-29T05:23:53;4.25;;;2.30;;
62790;SDS011;48830;53.426;10.300;2023-12-29T05:26:19;4.80;;;2.55;;
62790;SDS011;48830;53.426;10.300;2023-12-29T05:28:44;4.95;;;2.60;;
62790;SDS011;48830;53.426;10.300;2023-12-29T05:31:10;4.47;;;2.60;;
62790;SDS011;48830;53.426;10.300;2023-12-29T05:33:35;4.82;;;2.53;;
62790;SDS011;48830;53.426;10.300;2023-12-29T05:36:07;4.50;;;2.25;;
62790;SDS011;48830;53.426;10.300;2023-12-29T05:38:35;3.78;;;2.28;;
62790;SDS011;48830;53.426;10.300;2023-12-29T05:41:01;4.05;;;2.17;;
62790;SDS011;48830;53.426;10.300;2023-12-29T05:43:29;3.80;;;2.05;;
62790;SDS011;48830;53.426;10.300;2023-12-29T05:45:56;3.97;;;2.40;;
62790;SDS011;48830;53.426;10.300;2023-12-29T05:48:21;4.25;;;2.42;;
62790;SDS011;48830;53.426;10.300;2023-12-29T05:50:47;3.25;;;2.20;;
62790;SDS011;48830;53.426;10.300;2023-12-29T05:53:12;4.35;;;2.28;;
62790;SDS011;48830;53.426;10.300;2023-12-29T05:55:40;4.60;;;2.33;;
62790;SDS011;48830;53.426;10.300;2023-12-29T05:58:06;3.53;;;2.28;;
62790;SDS011;48830;53.426;10.300;2023-12-29T06:00:31;4.95;;;2.20;;
62790;SDS011;48830;53.426;10.300;2023-12-29T06:02:56;4.15;;;2.10;;
62790;SDS011;48830;53.426;10.300;2023-12-29T06:05:22;4.30;;;2.42;;
62790;SDS011;48830;53.426;10.300;2023-12-29T06:07:47;4.90;;;2.50;;
62790;SDS011;48830;53.426;10.300;2023-12-29T06:10:13;4.18;;;2.20;;
62790;SDS011;48830;53.426;10.300;2023-12-29T06:12:38;3.28;;;1.88;;
62790;SDS011;48830;53.426;10.300;2023-12-29T06:15:04;3.63;;;2.22;;
62790;SDS011;48830;53.426;10.300;2023-12-29T06:17:30;4.68;;;2.45;;
62790;SDS011;48830;53.426;10.300;2023-12-29T06:19:55;4.68;;;1.95;;
62790;SDS011;48830;53.426;10.300;2023-12-29T06:22:21;3.92;;;2.00;;
62790;SDS011;48830;53.426;10.300;2023-12-29T06:24:46;3.53;;;1.90;;
62790;SDS011;48830;53.426;10.300;2023-12-29T06:27:12;4.72;;;2.20;;
62790;SDS011;48830;53.426;10.300;2023-12-29T06:29:37;4.20;;;2.20;;
62790;SDS011;48830;53.426;10.300;2023-12-29T06:32:03;3.72;;;2.00;;
62790;SDS011;48830;53.426;10.300;2023-12-29T06:34:29;4.03;;;2.15;;
62790;SDS011;48830;53.426;10.300;2023-12-29T06:36:55;3.55;;;2.08;;
62790;SDS011;48830;53.426;10.300;2023-12-29T06:39:20;3.60;;;2.10;;
62790;SDS011;48830;53.426;10.300;2023-12-29T06:41:46;4.70;;;2.05;;
62790;SDS011;48830;53.426;10.300;2023-12-29T06:44:11;4.20;;;1.85;;
62790;SDS011;48830;53.426;10.300;2023-12-29T06:46:37;3.75;;;2.00;;
62790;SDS011;48830;53.426;10.300;2023-12-29T06:49:03;3.28;;;2.00;;
62790;SDS011;48830;53.426;10.300;2023-12-29T06:51:28;4.13;;;2.10;;
62790;SDS011;48830;53.426;10.300;2023-12-29T06:53:54;4.13;;;2.10;;
62790;SDS011;48830;53.426;10.300;2023-12-29T06:56:19;3.15;;;1.77;;
62790;SDS011;48830;53.426;10.300;2023-12-29T06:58:45;4.47;;;2.10;;
62790;SDS011;48830;53.426;10.300;2023-12-29T07:01:11;3.53;;;2.20;;
62790;SDS011;48830;53.426;10.300;2023-12-29T07:03:37;4.18;;;2.08;;
62790;SDS011;48830;53.426;10.300;2023-12-29T07:06:02;4.10;;;2.10;;
62790;SDS011;48830;53.426;10.300;2023-12-29T07:08:28;3.78;;;2.05;;
62790;SDS011;48830;53.426;10.300;2023-12-29T07:10:53;3.38;;;2.05;;
62790;SDS011;48830;53.426;10.300;2023-12-29T07:13:19;3.20;;;1.73;;
62790;SDS011;48830;53.426;10.300;2023-12-29T07:15:46;3.65;;;2.00;;
62790;SDS011;48830;53.426;10.300;2023-12-29T07:18:12;4.25;;;1.95;;
62790;SDS011;48830;53.426;10.300;2023-12-29T07:20:37;3.42;;;2.00;;
62790;SDS011;48830;53.426;10.300;2023-12-29T07:23:03;3.45;;;1.90;;
62790;SDS011;48830;53.426;10.300;2023-12-29T07:25:29;4.45;;;2.67;;
62790;SDS011;48830;53.426;10.300;2023-12-29T07:27:54;2.75;;;1.70;;
62790;SDS011;48830;53.426;10.300;2023-12-29T07:30:20;4.30;;;2.13;;
62790;SDS011;48830;53.426;10.300;2023-12-29T07:32:45;3.90;;;2.15;;
62790;SDS011;48830;53.426;10.300;2023-12-29T07:35:11;3.67;;;1.88;;
62790;SDS011;48830;53.426;10.300;2023-12-29T07:37:36;2.00;;;1.60;;
62790;SDS011;48830;53.426;10.300;2023-12-29T07:40:02;3.60;;;2.45;;
62790;SDS011;48830;53.426;10.300;2023-12-29T07:42:28;2.83;;;1.98;;
62790;SDS011;48830;53.426;10.300;2023-12-29T07:44:54;4.07;;;1.90;;
62790;SDS011;48830;53.426;10.300;2023-12-29T07:47:21;3.80;;;2.03;;
62790;SDS011;48830;53.426;10.300;2023-12-29T07:49:47;4.93;;;2.13;;
62790;SDS011;48830;53.426;10.300;2023-12-29T07:52:12;3.30;;;1.77;;
62790;SDS011;48830;53.426;10.300;2023-12-29T07:54:38;2.72;;;1.70;;
62790;SDS011;48830;53.426;10.300;2023-12-29T07:57:03;2.58;;;1.65;;
62790;SDS011;48830;53.426;10.300;2023-12-29T07:59:29;2.50;;;1.70;;
62790;SDS011;48830;53.426;10.300;2023-12-29T08:01:54;3.28;;;1.80;;
62790;SDS011;48830;53.426;10.300;2023-12-29T08:04:20;3.80;;;1.98;;
62790;SDS011;48830;53.426;10.300;2023-12-29T08:06:45;4.25;;;2.20;;
62790;SDS011;48830;53.426;10.300;2023-12-29T08:09:10;3.85;;;1.92;;
62790;SDS011;48830;53.426;10.300;2023-12-29T08:11:36;3.85;;;1.90;;
62790;SDS011;48830;53.426;10.300;2023-12-29T08:14:01;3.15;;;2.05;;
62790;SDS011;48830;53.426;10.300;2023-12-29T08:16:27;3.13;;;1.80;;
62790;SDS011;48830;53.426;10.300;2023-12-29T08:18:52;3.95;;;2.00;;
62790;SDS011;48830;53.426;10.300;2023-12-29T08:21:18;4.50;;;1.90;;
62790;SDS011;48830;53.426;10.300;2023-12-29T08:23:47;3.53;;;1.95;;
62790;SDS011;48830;53.426;10.300;2023-12-29T08:26:13;5.32;;;2.00;;
62790;SDS011;48830;53.426;10.300;2023-12-29T08:28:39;4.00;;;2.10;;
62790;SDS011;48830;53.426;10.300;2023-12-29T08:31:06;4.40;;;1.90;;
62790;SDS011;48830;53.426;10.300;2023-12-29T08:33:34;3.38;;;1.70;;
62790;SDS011;48830;53.426;10.300;2023-12-29T08:36:01;4.20;;;2.17;;
62790;SDS011;48830;53.426;10.300;2023-12-29T08:38:28;4.13;;;1.90;;
62790;SDS011;48830;53.426;10.300;2023-12-29T08:40:54;3.55;;;2.17;;
62790;SDS011;48830;53.426;10.300;2023-12-29T08:43:20;3.47;;;1.65;;
62790;SDS011;48830;53.426;10.300;2023-12-29T08:45:47;3.80;;;1.80;;
62790;SDS011;48830;53.426;10.300;2023-12-29T08:48:13;3.75;;;1.70;;
62790;SDS011;48830;53.426;10.300;2023-12-29T08:50:38;5.35;;;1.88;;
62790;SDS011;48830;53.426;10.300;2023-12-29T08:53:04;3.05;;;1.52;;
62790;SDS011;48830;53.426;10.300;2023-12-29T08:55:29;2.83;;;1.60;;
62790;SDS011;48830;53.426;10.300;2023-12-29T08:57:56;3.33;;;1.80;;
62790;SDS011;48830;53.426;10.300;2023-12-29T09:00:22;3.00;;;1.70;;
62790;SDS011;48830;53.426;10.300;2023-12-29T09:02:48;4.07;;;1.77;;
62790;SDS011;48830;53.426;10.300;2023-12-29T09:05:13;3.42;;;1.42;;
62790;SDS011;48830;53.426;10.300;2023-12-29T09:07:39;4.05;;;1.88;;
62790;SDS011;48830;53.426;10.300;2023-12-29T09:10:05;2.75;;;1.63;;
62790;SDS011;48830;53.426;10.300;2023-12-29T09:12:35;3.08;;;1.67;;
62790;SDS011;48830;53.426;10.300;2023-12-29T09:15:02;3.00;;;1.65;;
62790;SDS011;48830;53.426;10.300;2023-12-29T09:17:27;4.78;;;1.90;;
62790;SDS011;48830;53.426;10.300;2023-12-29T09:19:53;2.75;;;1.50;;
62790;SDS011;48830;53.426;10.300;2023-12-29T09:22:20;4.45;;;1.75;;
62790;SDS011;48830;53.426;10.300;2023-12-29T09:24:45;3.17;;;1.67;;
62790;SDS011;48830;53.426;10.300;2023-12-29T09:27:11;3.28;;;1.77;;
62790;SDS011;48830;53.426;10.300;2023-12-29T09:29:37;3.50;;;1.70;;
62790;SDS011;48830;53.426;10.300;2023-12-29T09:32:02;3.30;;;1.80;;
62790;SDS011;48830;53.426;10.300;2023-12-29T09:34:28;3.08;;;1.92;;
62790;SDS011;48830;53.426;10.300;2023-12-29T09:36:54;3.65;;;1.80;;
62790;SDS011;48830;53.426;10.300;2023-12-29T09:39:19;2.88;;;1.70;;
62790;SDS011;48830;53.426;10.300;2023-12-29T09:41:45;3.13;;;1.80;;
62790;SDS011;48830;53.426;10.300;2023-12-29T09:44:15;3.45;;;1.88;;
62790;SDS011;48830;53.426;10.300;2023-12-29T09:46:44;5.70;;;1.80;;
62790;SDS011;48830;53.426;10.300;2023-12-29T09:49:13;3.50;;;1.67;;
62790;SDS011;48830;53.426;10.300;2023-12-29T09:51:41;3.75;;;1.90;;
62790;SDS011;48830;53.426;10.300;2023-12-29T09:54:08;3.95;;;1.90;;
62790;SDS011;48830;53.426;10.300;2023-12-29T09:56:35;3.80;;;1.83;;
62790;SDS011;48830;53.426;10.300;2023-12-29T09:59:01;2.88;;;1.60;;
62790;SDS011;48830;53.426;10.300;2023-12-29T10:01:28;3.40;;;1.73;;
62790;SDS011;48830;53.426;10.300;2023-12-29T10:03:56;3.28;;;1.70;;
62790;SDS011;48830;53.426;10.300;2023-12-29T10:06:25;2.85;;;1.60;;
62790;SDS011;48830;53.426;10.300;2023-12-29T10:08:51;3.22;;;1.75;;
62790;SDS011;48830;53.426;10.300;2023-12-29T10:11:19;3.58;;;1.77;;
62790;SDS011;48830;53.426;10.300;2023-12-29T10:13:46;2.08;;;1.50;;
62790;SDS011;48830;53.426;10.300;2023-12-29T10:16:24;4.43;;;1.85;;
62790;SDS011;48830;53.426;10.300;2023-12-29T10:21:57;3.55;;;1.60;;
62790;SDS011;48830;53.426;10.300;2023-12-29T10:24:46;2.65;;;1.50;;
62790;SDS011;48830;53.426;10.300;2023-12-29T10:27:12;4.82;;;1.70;;
62790;SDS011;48830;53.426;10.300;2023-12-29T10:29:38;2.78;;;1.50;;
62790;SDS011;48830;53.426;10.300;2023-12-29T10:32:03;4.50;;;1.67;;
62790;SDS011;48830;53.426;10.300;2023-12-29T10:34:29;3.38;;;1.60;;
62790;SDS011;48830;53.426;10.300;2023-12-29T10:36:57;4.20;;;1.73;;
62790;SDS011;48830;53.426;10.300;2023-12-29T10:39:23;3.50;;;1.60;;
62790;SDS011;48830;53.426;10.300;2023-12-29T10:41:50;2.47;;;1.40;;
62790;SDS011;48830;53.426;10.300;2023-12-29T10:44:27;2.85;;;1.52;;
62790;SDS011;48830;53.426;10.300;2023-12-29T10:46:52;2.45;;;1.33;;
62790;SDS011;48830;53.426;10.300;2023-12-29T10:49:17;2.70;;;1.45;;
62790;SDS011;48830;53.426;10.300;2023-12-29T10:51:43;2.35;;;1.48;;
62790;SDS011;48830;53.426;10.300;2023-12-29T10:54:09;3.30;;;1.58;;
62790;SDS011;48830;53.426;10.300;2023-12-29T10:56:44;3.55;;;1.45;;
62790;SDS011;48830;53.426;10.300;2023-12-29T10:59:10;3.03;;;1.60;;
62790;SDS011;48830;53.426;10.300;2023-12-29T11:01:37;3.72;;;1.70;;
62790;SDS011;48830;53.426;10.300;2023-12-29T11:04:04;2.58;;;1.40;;
62790;SDS011;48830;53.426;10.300;2023-12-29T11:06:43;3.22;;;1.40;;
62790;SDS011;48830;53.426;10.300;2023-12-29T11:09:12;2.55;;;1.30;;
62790;SDS011;48830;53.426;10.300;2023-12-29T11:11:38;2.28;;;1.35;;
62790;SDS011;48830;53.426;10.300;2023-12-29T11:14:04;2.58;;;1.60;;
62790;SDS011;48830;53.426;10.300;2023-12-29T11:16:31;2.45;;;1.30;;
62790;SDS011;48830;53.426;10.300;2023-12-29T11:18:59;3.63;;;1.80;;
62790;SDS011;48830;53.426;10.300;2023-12-29T11:21:26;2.92;;;1.40;;
62790;SDS011;48830;53.426;10.300;2023-12-29T11:23:55;3.00;;;1.58;;
62790;SDS011;48830;53.426;10.300;2023-12-29T11:26:20;2.80;;;1.40;;
62790;SDS011;48830;53.426;10.300;2023-12-29T11:28:46;2.55;;;1.45;;
62790;SDS011;48830;53.426;10.300;2023-12-29T11:31:18;2.35;;;1.10;;
62790;SDS011;48830;53.426;10.300;2023-12-29T11:33:56;3.40;;;1.20;;
62790;SDS011;48830;53.426;10.300;2023-12-29T11:36:40;4.88;;;1.60;;
62790;SDS011;48830;53.426;10.300;2023-12-29T11:39:15;3.58;;;1.20;;
62790;SDS011;48830;53.426;10.300;2023-12-29T11:44:26;3.63;;;1.13;;
62790;SDS011;48830;53.426;10.300;2023-12-29T11:46:53;2.85;;;1.23;;
62790;SDS011;48830;53.426;10.300;2023-12-29T11:49:19;4.30;;;1.30;;
62790;SDS011;48830;53.426;10.300;2023-12-29T11:51:46;3.60;;;1.50;;
62790;SDS011;48830;53.426;10.300;2023-12-29T11:54:26;2.65;;;1.00;;
62790;SDS011;48830;53.426;10.300;2023-12-29T11:56:52;4.00;;;1.40;;
62790;SDS011;48830;53.426;10.300;2023-12-29T11:59:22;4.28;;;2.08;;
62790;SDS011;48830;53.426;10.300;2023-12-29T12:01:53;2.78;;;1.30;;
62790;SDS011;48830;53.426;10.300;2023-12-29T12:04:37;4.75;;;1.20;;
62790;SDS011;48830;53.426;10.300;2023-12-29T12:07:05;3.03;;;1.00;;
62790;SDS011;48830;53.426;10.300;2023-12-29T12:09:32;1.88;;;1.20;;
62790;SDS011;48830;53.426;10.300;2023-12-29T12:12:00;2.17;;;1.20;;
62790;SDS011;48830;53.426;10.300;2023-12-29T12:20:06;3.88;;;1.30;;
62790;SDS011;48830;53.426;10.300;2023-12-29T12:22:36;3.08;;;1.20;;
62790;SDS011;48830;53.426;10.300;2023-12-29T12:25:03;3.05;;;1.20;;
62790;SDS011;48830;53.426;10.300;2023-12-29T12:27:29;2.42;;;1.10;;
62790;SDS011;48830;53.426;10.300;2023-12-29T12:29:57;2.85;;;1.17;;
62790;SDS011;48830;53.426;10.300;2023-12-29T12:32:28;2.05;;;1.17;;
62790;SDS011;48830;53.426;10.300;2023-12-29T12:34:55;3.70;;;1.20;;
62790;SDS011;48830;53.426;10.300;2023-12-29T12:37:22;2.92;;;1.30;;
62790;SDS011;48830;53.426;10.300;2023-12-29T12:39:51;2.30;;;1.00;;
62790;SDS011;48830;53.426;10.300;2023-12-29T12:42:18;2.42;;;1.00;;
62790;SDS011;48830;53.426;10.300;2023-12-29T12:45:03;3.00;;;1.20;;
62790;SDS011;48830;53.426;10.300;2023-12-29T12:47:37;2.30;;;1.20;;
62790;SDS011;48830;53.426;10.300;2023-12-29T12:50:10;1.92;;;1.40;;
62790;SDS011;48830;53.426;10.300;2023-12-29T12:52:37;1.83;;;1.00;;
62790;SDS011;48830;53.426;10.300;2023-12-29T12:55:03;3.05;;;1.30;;
62790;SDS011;48830;53.426;10.300;2023-12-29T12:57:30;3.97;;;1.23;;
62790;SDS011;48830;53.426;10.300;2023-12-29T12:59:56;2.60;;;1.10;;
62790;SDS011;48830;53.426;10.300;2023-12-29T13:02:22;2.85;;;1.02;;
62790;SDS011;48830;53.426;10.300;2023-12-29T13:04:49;4.00;;;1.35;;
62790;SDS011;48830;53.426;10.300;2023-12-29T13:07:17;3.35;;;1.20;;
62790;SDS011;48830;53.426;10.300;2023-12-29T13:09:43;1.33;;;1.00;;
62790;SDS011;48830;53.426;10.300;2023-12-29T13:12:11;2.05;;;1.00;;
62790;SDS011;48830;53.426;10.300;2023-12-29T13:14:37;2.42;;;1.27;;
62790;SDS011;48830;53.426;10.300;2023-12-29T13:17:07;2.33;;;1.00;;
62790;SDS011;48830;53.426;10.300;2023-12-29T13:19:36;2.42;;;1.25;;
62790;SDS011;48830;53.426;10.300;2023-12-29T13:22:05;2.03;;;1.08;;
62790;SDS011;48830;53.426;10.300;2023-12-29T13:24:33;2.92;;;1.00;;
62790;SDS011;48830;53.426;10.300;2023-12-29T13:27:03;3.03;;;1.40;;
62790;SDS011;48830;53.426;10.300;2023-12-29T13:29:30;3.38;;;1.20;;
62790;SDS011;48830;53.426;10.300;2023-12-29T13:32:00;2.40;;;1.10;;
62790;SDS011;48830;53.426;10.300;2023-12-29T13:37:25;3.00;;;1.20;;
62790;SDS011;48830;53.426;10.300;2023-12-29T13:40:12;2.35;;;1.20;;
62790;SDS011;48830;53.426;10.300;2023-12-29T13:42:39;1.83;;;1.00;;
62790;SDS011;48830;53.426;10.300;2023-12-29T13:45:07;0.98;;;0.85;;
62790;SDS011;48830;53.426;10.300;2023-12-29T13:47:34;1.58;;;1.00;;
62790;SDS011;48830;53.426;10.300;2023-12-29T13:50:01;1.65;;;1.02;;
62790;SDS011;48830;53.426;10.300;2023-12-29T13:52:28;1.60;;;1.00;;
62790;SDS011;48830;53.426;10.300;2023-12-29T13:54:53;2.55;;;1.08;;
62790;SDS011;48830;53.426;10.300;2023-12-29T13:57:19;2.25;;;1.13;;
62790;SDS011;48830;53.426;10.300;2023-12-29T14:00:13;3.30;;;1.23;;
62790;SDS011;48830;53.426;10.300;2023-12-29T14:02:43;2.28;;;1.08;;
62790;SDS011;48830;53.426;10.300;2023-12-29T14:05:12;1.67;;;0.90;;
62790;SDS011;48830;53.426;10.300;2023-12-29T14:07:48;3.25;;;1.17;;
62790;SDS011;48830;53.426;10.300;2023-12-29T14:10:28;2.30;;;0.90;;
62790;SDS011;48830;53.426;10.300;2023-12-29T14:13:02;0.82;;;0.63;;
62790;SDS011;48830;53.426;10.300;2023-12-29T14:15:38;2.30;;;0.90;;
62790;SDS011;48830;53.426;10.300;2023-12-29T14:18:07;3.30;;;1.10;;
62790;SDS011;48830;53.426;10.300;2023-12-29T14:20:52;2.08;;;1.02;;
62790;SDS011;48830;53.426;10.300;2023-12-29T14:23:18;1.55;;;0.85;;
62790;SDS011;48830;53.426;10.300;2023-12-29T14:25:44;2.70;;;1.00;;
62790;SDS011;48830;53.426;10.300;2023-12-29T14:28:19;2.17;;;1.00;;
62790;SDS011;48830;53.426;10.300;2023-12-29T14:30:47;2.83;;;1.00;;
62790;SDS011;48830;53.426;10.300;2023-12-29T14:33:12;2.78;;;1.35;;
62790;SDS011;48830;53.426;10.300;2023-12-29T14:35:38;2.05;;;0.70;;
62790;SDS011;48830;53.426;10.300;2023-12-29T14:38:03;2.58;;;1.00;;
62790;SDS011;48830;53.426;10.300;2023-12-29T14:40:29;2.35;;;1.10;;
62790;SDS011;48830;53.426;10.300;2023-12-29T14:42:55;2.20;;;0.90;;
62790;SDS011;48830;53.426;10.300;2023-12-29T14:45:20;1.50;;;1.08;;
62790;SDS011;48830;53.426;10.300;2023-12-29T14:47:46;1.95;;;0.95;;